Time,TemperatureF,DewpointF,PressureIn,WindDirection,WindDirectionDegrees,WindSpeedMPH,WindSpeedGustMPH,Humidity,HourlyPrecipIn,Conditions,Clouds,dailyrainin,SolarRadiationWatts/m^2,SoftwareType,DateUTC
2013-12-21 00:02:00,71.0,69.0,-100.00,South,169,6.0,19.0,95,0.03,,,0.03,0.000000,,2013-12-21 06:02:00,
2013-12-21 00:22:00,72.0,70.0,-100.00,SSE,162,7.0,16.0,93,0.00,,,0.03,0.000000,,2013-12-21 06:22:00,
2013-12-21 00:32:00,72.0,70.0,-100.00,SSE,162,7.0,16.0,93,0.00,,,0.03,0.000000,,2013-12-21 06:32:00,
2013-12-21 00:42:00,72.0,70.0,-100.00,SSE,162,7.0,16.0,93,0.00,,,0.03,0.000000,,2013-12-21 06:42:00,
2013-12-21 00:52:00,72.0,70.0,-100.00,SSE,162,7.0,16.0,93,0.00,,,0.03,0.000000,,2013-12-21 06:52:00,
2013-12-21 01:02:00,72.0,70.0,-100.00,SSE,162,7.0,16.0,93,0.00,,,0.03,0.000000,,2013-12-21 07:02:00,
2013-12-21 01:22:00,72.0,69.0,-100.00,South,169,5.0,17.0,91,0.00,,,0.03,0.000000,,2013-12-21 07:22:00,
2013-12-21 01:32:00,72.0,69.0,-100.00,South,169,5.0,17.0,91,0.00,,,0.03,0.000000,,2013-12-21 07:32:00,
2013-12-21 01:42:00,72.0,69.0,-100.00,South,169,5.0,17.0,91,0.00,,,0.03,0.000000,,2013-12-21 07:42:00,
2013-12-21 01:53:00,72.0,69.0,-100.00,South,169,5.0,17.0,91,0.00,,,0.03,0.000000,,2013-12-21 07:53:00,
2013-12-21 02:02:00,72.0,69.0,-100.00,South,169,5.0,17.0,91,0.00,,,0.03,0.000000,,2013-12-21 08:02:00,
2013-12-21 02:22:00,73.0,69.0,-100.00,South,189,4.0,13.0,88,0.00,,,0.03,0.000000,,2013-12-21 08:22:00,
2013-12-21 02:32:00,73.0,69.0,-100.00,South,189,4.0,13.0,88,0.00,,,0.03,0.000000,,2013-12-21 08:32:00,
2013-12-21 02:42:00,73.0,69.0,-100.00,South,189,4.0,13.0,88,0.00,,,0.03,0.000000,,2013-12-21 08:42:00,
2013-12-21 02:53:00,73.0,69.0,-100.00,South,189,4.0,13.0,88,0.00,,,0.03,0.000000,,2013-12-21 08:53:00,
2013-12-21 03:02:00,73.0,69.0,-100.00,South,189,4.0,13.0,88,0.00,,,0.03,0.000000,,2013-12-21 09:02:00,
2013-12-21 03:03:00,73.0,69.0,-100.00,South,175,7.0,16.0,88,0.01,,,0.04,0.000000,,2013-12-21 09:03:00,
2013-12-21 03:22:00,73.0,69.0,-100.00,South,175,7.0,16.0,88,0.01,,,0.04,0.000000,,2013-12-21 09:22:00,
2013-12-21 03:33:00,73.0,69.0,-100.00,South,175,7.0,16.0,88,0.01,,,0.04,0.000000,,2013-12-21 09:33:00,
2013-12-21 03:43:00,73.0,69.0,-100.00,South,175,7.0,16.0,88,0.01,,,0.04,0.000000,,2013-12-21 09:43:00,
2013-12-21 03:54:00,73.0,69.0,-100.00,South,175,7.0,16.0,88,0.01,,,0.04,0.000000,,2013-12-21 09:54:00,
2013-12-21 04:23:00,71.0,69.0,-100.00,South,172,5.0,14.0,95,0.06,,,0.10,0.000000,,2013-12-21 10:23:00,
2013-12-21 04:33:00,71.0,69.0,-100.00,South,172,5.0,14.0,95,0.06,,,0.10,0.000000,,2013-12-21 10:33:00,
2013-12-21 04:43:00,71.0,69.0,-100.00,South,172,5.0,14.0,95,0.06,,,0.10,0.000000,,2013-12-21 10:43:00,
2013-12-21 04:53:00,71.0,69.0,-100.00,South,172,5.0,14.0,95,0.06,,,0.10,0.000000,,2013-12-21 10:53:00,
2013-12-21 05:02:00,71.0,69.0,-100.00,South,172,5.0,14.0,95,0.06,,,0.10,0.000000,,2013-12-21 11:02:00,
2013-12-21 05:23:00,71.0,70.0,-100.00,South,187,5.0,15.0,96,0.06,,,0.16,0.000000,,2013-12-21 11:23:00,
2013-12-21 05:33:00,71.0,70.0,-100.00,South,187,5.0,15.0,96,0.06,,,0.16,0.000000,,2013-12-21 11:33:00,
2013-12-21 05:42:00,71.0,70.0,-100.00,South,187,5.0,15.0,96,0.06,,,0.16,0.000000,,2013-12-21 11:42:00,
2013-12-21 05:53:00,71.0,70.0,-100.00,South,187,5.0,15.0,96,0.06,,,0.16,0.000000,,2013-12-21 11:53:00,
2013-12-21 06:02:00,71.0,70.0,-100.00,South,187,5.0,15.0,96,0.06,,,0.16,0.000000,,2013-12-21 12:02:00,
2013-12-21 06:42:00,71.0,69.0,-100.00,SSW,192,6.0,19.0,93,0.01,,,0.17,0.000000,,2013-12-21 12:42:00,
2013-12-21 06:52:00,71.0,69.0,-100.00,SSW,192,6.0,19.0,93,0.01,,,0.17,0.000000,,2013-12-21 12:52:00,
2013-12-21 07:02:00,71.0,69.0,-100.00,SSW,192,6.0,19.0,93,0.01,,,0.17,0.000000,,2013-12-21 13:02:00,
2013-12-21 07:22:00,72.0,69.0,-100.00,South,185,7.0,18.0,90,0.00,,,0.17,0.000000,,2013-12-21 13:22:00,
2013-12-21 07:32:00,72.0,69.0,-100.00,South,185,7.0,18.0,90,0.00,,,0.17,0.000000,,2013-12-21 13:32:00,
2013-12-21 07:42:00,72.0,69.0,-100.00,South,185,7.0,18.0,90,0.00,,,0.17,0.000000,,2013-12-21 13:42:00,
2013-12-21 07:52:00,72.0,69.0,-100.00,South,185,7.0,18.0,90,0.00,,,0.17,0.000000,,2013-12-21 13:52:00,
2013-12-21 08:02:00,72.0,69.0,-100.00,South,185,7.0,18.0,90,0.00,,,0.17,0.000000,,2013-12-21 14:02:00,
2013-12-21 08:42:00,72.0,69.0,-100.00,South,185,6.0,17.0,89,0.00,,,0.17,8.000000,,2013-12-21 14:42:00,
2013-12-21 08:53:00,72.0,69.0,-100.00,South,185,6.0,17.0,89,0.00,,,0.17,8.000000,,2013-12-21 14:53:00,
2013-12-21 09:02:00,72.0,69.0,-100.00,South,185,6.0,17.0,89,0.00,,,0.17,8.000000,,2013-12-21 15:02:00,
2013-12-21 09:03:00,72.0,69.0,-100.00,SSW,193,6.0,15.0,91,0.01,,,0.18,21.000000,,2013-12-21 15:03:00,
2013-12-21 09:22:00,72.0,69.0,-100.00,SSW,193,6.0,15.0,91,0.01,,,0.18,21.000000,,2013-12-21 15:22:00,
2013-12-21 09:33:00,72.0,69.0,-100.00,SSW,193,6.0,15.0,91,0.01,,,0.18,21.000000,,2013-12-21 15:33:00,
2013-12-21 09:44:00,72.0,69.0,-100.00,SSW,193,6.0,15.0,91,0.01,,,0.18,21.000000,,2013-12-21 15:44:00,
2013-12-21 09:53:00,72.0,69.0,-100.00,SSW,193,6.0,15.0,91,0.01,,,0.18,21.000000,,2013-12-21 15:53:00,
2013-12-21 10:03:00,71.0,69.0,-100.00,South,191,6.0,16.0,95,0.06,,,0.24,21.000000,,2013-12-21 16:03:00,
2013-12-21 10:23:00,71.0,69.0,-100.00,South,191,6.0,16.0,95,0.06,,,0.24,21.000000,,2013-12-21 16:23:00,
2013-12-21 10:34:00,71.0,69.0,-100.00,South,191,6.0,16.0,95,0.06,,,0.24,21.000000,,2013-12-21 16:34:00,
2013-12-21 10:43:00,71.0,69.0,-100.00,South,191,6.0,16.0,95,0.06,,,0.24,21.000000,,2013-12-21 16:43:00,
2013-12-21 10:53:00,71.0,69.0,-100.00,South,191,6.0,16.0,95,0.06,,,0.24,21.000000,,2013-12-21 16:53:00,
2013-12-21 11:43:00,71.0,70.0,-100.00,South,191,5.0,17.0,96,0.04,,,0.28,31.000000,,2013-12-21 17:43:00,
2013-12-21 11:53:00,71.0,70.0,-100.00,South,191,5.0,17.0,96,0.04,,,0.28,31.000000,,2013-12-21 17:53:00,
2013-12-21 12:02:00,71.0,70.0,-100.00,South,191,5.0,17.0,96,0.04,,,0.28,31.000000,,2013-12-21 18:02:00,
2013-12-21 12:42:00,71.0,69.0,-100.00,South,182,5.0,17.0,93,0.02,,,0.30,49.000000,,2013-12-21 18:42:00,
2013-12-21 12:52:00,71.0,69.0,-100.00,South,182,5.0,17.0,93,0.02,,,0.30,49.000000,,2013-12-21 18:52:00,
2013-12-21 13:02:00,71.0,69.0,-100.00,South,182,5.0,17.0,93,0.02,,,0.30,49.000000,,2013-12-21 19:02:00,
2013-12-21 13:42:00,71.0,69.0,-100.00,South,178,4.0,13.0,93,0.02,,,0.32,72.000000,,2013-12-21 19:42:00,
2013-12-21 13:52:00,71.0,69.0,-100.00,South,178,4.0,13.0,93,0.02,,,0.32,72.000000,,2013-12-21 19:52:00,
2013-12-21 14:02:00,71.0,69.0,-100.00,South,178,4.0,13.0,93,0.02,,,0.32,72.000000,,2013-12-21 20:02:00,
2013-12-21 14:42:00,61.0,59.0,-100.00,NW,314,14.0,34.0,93,0.67,,,0.99,23.000000,,2013-12-21 20:42:00,
2013-12-21 14:52:00,61.0,59.0,-100.00,NW,314,14.0,34.0,93,0.67,,,0.99,23.000000,,2013-12-21 20:52:00,
2013-12-21 15:02:00,61.0,59.0,-100.00,NW,314,14.0,34.0,93,0.67,,,0.99,23.000000,,2013-12-21 21:02:00,
2013-12-21 15:03:00,57.0,55.0,-100.00,NNE,25,4.0,25.0,93,0.02,,,1.01,53.000000,,2013-12-21 21:03:00,
2013-12-21 15:43:00,57.0,55.0,-100.00,NNE,25,4.0,25.0,93,0.02,,,1.01,53.000000,,2013-12-21 21:43:00,
2013-12-21 15:53:00,57.0,55.0,-100.00,NNE,25,4.0,25.0,93,0.02,,,1.01,53.000000,,2013-12-21 21:53:00,
2013-12-21 16:42:00,58.0,56.0,-100.00,SE,145,1.0,10.0,93,0.00,,,1.01,76.000000,,2013-12-21 22:42:00,
2013-12-21 16:53:00,58.0,56.0,-100.00,SE,145,1.0,10.0,93,0.00,,,1.01,76.000000,,2013-12-21 22:53:00,
2013-12-21 17:02:00,58.0,56.0,-100.00,SE,145,1.0,10.0,93,0.00,,,1.01,76.000000,,2013-12-21 23:02:00,
2013-12-21 17:43:00,57.0,56.0,-100.00,South,183,1.0,3.0,96,0.00,,,1.01,31.000000,,2013-12-21 23:43:00,
2013-12-21 17:53:00,57.0,56.0,-100.00,South,183,1.0,3.0,96,0.00,,,1.01,31.000000,,2013-12-21 23:53:00,
2013-12-21 18:02:00,57.0,56.0,-100.00,South,183,1.0,3.0,96,0.00,,,1.01,31.000000,,2013-12-22 00:02:00,
2013-12-21 18:22:00,56.0,56.0,-100.00,SSW,202,1.0,4.0,99,0.00,,,1.01,10.000000,,2013-12-22 00:22:00,
2013-12-21 18:32:00,56.0,56.0,-100.00,SSW,202,1.0,4.0,99,0.00,,,1.01,10.000000,,2013-12-22 00:32:00,
2013-12-21 18:42:00,56.0,56.0,-100.00,SSW,202,1.0,4.0,99,0.00,,,1.01,10.000000,,2013-12-22 00:42:00,
2013-12-21 18:52:00,56.0,56.0,-100.00,SSW,202,1.0,4.0,99,0.00,,,1.01,10.000000,,2013-12-22 00:52:00,
2013-12-21 19:02:00,56.0,56.0,-100.00,SSW,202,1.0,4.0,99,0.00,,,1.01,10.000000,,2013-12-22 01:02:00,
2013-12-21 19:42:00,55.0,55.0,-100.00,West,277,1.0,6.0,99,0.00,,,1.01,0.000000,,2013-12-22 01:42:00,
2013-12-21 19:52:00,55.0,55.0,-100.00,West,277,1.0,6.0,99,0.00,,,1.01,0.000000,,2013-12-22 01:52:00,
2013-12-21 20:02:00,55.0,55.0,-100.00,West,277,1.0,6.0,99,0.00,,,1.01,0.000000,,2013-12-22 02:02:00,
2013-12-21 20:42:00,54.0,54.0,-100.00,WSW,238,1.0,4.0,100,0.00,,,1.01,0.000000,,2013-12-22 02:42:00,
2013-12-21 20:52:00,54.0,54.0,-100.00,WSW,238,1.0,4.0,100,0.00,,,1.01,0.000000,,2013-12-22 02:52:00,
2013-12-21 21:02:00,54.0,54.0,-100.00,WSW,238,1.0,4.0,100,0.00,,,1.01,0.000000,,2013-12-22 03:02:00,
2013-12-21 21:43:00,55.0,55.0,-100.00,SE,138,2.0,4.0,100,0.00,,,1.01,0.000000,,2013-12-22 03:43:00,
2013-12-21 21:54:00,55.0,55.0,-100.00,SE,138,2.0,4.0,100,0.00,,,1.01,0.000000,,2013-12-22 03:54:00,
2013-12-21 22:02:00,-999.0,-99.9,-100.00,SE,138,2.0,4.0,-999,0.00,,,-99.99,0.000000,,2013-12-22 04:02:00,
2013-12-21 22:03:00,55.0,55.0,-100.00,SSE,153,1.0,3.0,100,0.00,,,1.01,0.000000,,2013-12-22 04:03:00,
2013-12-21 22:43:00,55.0,55.0,-100.00,SSE,153,1.0,3.0,100,0.00,,,1.01,0.000000,,2013-12-22 04:43:00,
2013-12-21 22:53:00,55.0,55.0,-100.00,SSE,153,1.0,3.0,100,0.00,,,1.01,0.000000,,2013-12-22 04:53:00,
2013-12-21 23:22:00,55.0,55.0,-100.00,SE,141,2.0,8.0,100,0.00,,,0.98,0.000000,,2013-12-22 05:22:00,
2013-12-21 23:32:00,55.0,55.0,-100.00,SE,141,2.0,8.0,100,0.00,,,0.98,0.000000,,2013-12-22 05:32:00,
2013-12-21 23:43:00,55.0,55.0,-100.00,SE,141,2.0,8.0,100,0.00,,,0.98,0.000000,,2013-12-22 05:43:00,
2013-12-21 23:53:00,55.0,55.0,-100.00,SE,141,2.0,8.0,100,0.00,,,0.98,0.000000,,2013-12-22 05:53:00,